createdAt,value
2023-04-27T00:00:37.617Z,59.07
2023-04-27T00:03:16.309Z,58.72
2023-04-27T00:05:44.548Z,58.68
2023-04-27T00:08:12.379Z,58.70
2023-04-27T00:10:40.037Z,58.54
2023-04-27T00:13:07.695Z,58.70
2023-04-27T00:15:35.365Z,59.08
2023-04-27T00:18:03.153Z,58.78
2023-04-27T00:20:30.881Z,58.76
2023-04-27T00:22:58.552Z,58.69
2023-04-27T00:25:26.309Z,58.64
2023-04-27T00:27:53.977Z,59.01
2023-04-27T00:30:21.743Z,58.89
2023-04-27T00:32:49.428Z,59.30
2023-04-27T00:35:17.282Z,59.49
2023-04-27T00:37:45.027Z,59.42
2023-04-27T00:40:12.730Z,59.34
2023-04-27T00:42:40.738Z,59.12
2023-04-27T00:45:08.523Z,59.32
2023-04-27T00:47:36.341Z,59.86
2023-04-27T00:50:04.266Z,59.69
2023-04-27T00:52:31.921Z,59.95
2023-04-27T00:54:59.685Z,59.66
2023-04-27T00:57:27.348Z,59.45
2023-04-27T00:59:55.007Z,59.86
2023-04-27T01:02:23.079Z,59.54
2023-04-27T01:04:51.255Z,59.50
2023-04-27T01:07:18.912Z,60.04
2023-04-27T01:09:46.881Z,59.90
2023-04-27T01:12:14.644Z,59.64
2023-04-27T01:14:42.612Z,59.99
2023-04-27T01:17:11.064Z,59.91
2023-04-27T01:19:40.597Z,60.10
2023-04-27T01:22:08.365Z,60.07
2023-04-27T01:24:36.812Z,60.03
2023-04-27T01:27:05.130Z,59.86
2023-04-27T01:29:32.886Z,60.36
2023-04-27T01:32:00.560Z,60.29
2023-04-27T01:34:28.310Z,60.27
2023-04-27T01:36:55.968Z,60.34
2023-04-27T01:39:23.634Z,60.34
2023-04-27T01:41:51.303Z,60.46
2023-04-27T01:44:21.106Z,60.85
2023-04-27T01:46:48.873Z,61.12
2023-04-27T01:49:16.996Z,60.87
2023-04-27T01:51:44.794Z,60.65
2023-04-27T01:54:12.486Z,60.72
2023-04-27T01:56:40.141Z,61.00
2023-04-27T01:59:07.916Z,61.05
2023-04-27T02:01:35.804Z,60.91
2023-04-27T02:04:04.585Z,60.84
2023-04-27T02:06:32.961Z,61.30
2023-04-27T02:09:00.597Z,60.87
2023-04-27T02:11:28.378Z,60.97
2023-04-27T02:13:56.124Z,61.05
2023-04-27T02:16:23.955Z,61.34
2023-04-27T02:18:54.021Z,61.22
2023-04-27T02:21:21.975Z,61.41
2023-04-27T02:23:49.637Z,61.30
2023-04-27T02:26:17.822Z,61.45
2023-04-27T02:28:45.981Z,61.70
2023-04-27T02:31:14.825Z,61.51
2023-04-27T02:33:42.653Z,61.54
2023-04-27T02:36:10.518Z,61.68
2023-04-27T02:38:38.177Z,61.51
2023-04-27T02:41:06.037Z,61.47
2023-04-27T02:43:33.695Z,61.89
2023-04-27T02:46:01.356Z,62.12
2023-04-27T02:48:29.016Z,67.26
2023-04-27T02:50:57.497Z,68.29
2023-04-27T02:53:25.157Z,55.02
2023-04-27T02:55:52.842Z,51.04
2023-04-27T02:58:20.590Z,52.30
2023-04-27T03:00:48.970Z,53.46
2023-04-27T03:03:16.999Z,54.35
2023-04-27T03:05:44.826Z,55.30
2023-04-27T03:08:12.565Z,55.85
2023-04-27T03:10:40.225Z,56.56
2023-04-27T03:13:07.883Z,56.99
2023-04-27T03:15:35.652Z,57.61
2023-04-27T03:18:03.427Z,58.27
2023-04-27T03:20:32.196Z,58.53
2023-04-27T03:22:59.965Z,58.90
2023-04-27T03:25:27.638Z,59.17
2023-04-27T03:27:55.393Z,59.55
2023-04-27T03:30:23.061Z,59.93
2023-04-27T03:32:50.957Z,60.23
2023-04-27T03:35:18.792Z,60.80
2023-04-27T03:37:46.557Z,61.06
2023-04-27T03:40:14.757Z,61.19
2023-04-27T03:42:42.486Z,61.49
2023-04-27T03:45:12.397Z,61.12
2023-04-27T03:47:40.311Z,61.20
2023-04-27T03:50:08.140Z,61.49
2023-04-27T03:52:35.798Z,61.49
2023-04-27T03:55:03.457Z,61.95
2023-04-27T03:57:31.227Z,68.39
2023-04-27T03:59:58.904Z,66.95
2023-04-27T04:02:27.145Z,53.73
2023-04-27T04:04:55.150Z,50.77
2023-04-27T04:07:23.099Z,52.51
2023-04-27T04:09:51.186Z,53.78
2023-04-27T04:12:18.908Z,55.54
2023-04-27T04:14:49.147Z,55.52
2023-04-27T04:17:17.129Z,57.09
2023-04-27T04:19:45.093Z,57.45
2023-04-27T04:22:12.764Z,58.19
2023-04-27T04:24:40.577Z,58.95
2023-04-27T04:27:09.213Z,59.47
2023-04-27T04:29:36.899Z,59.57
2023-04-27T04:32:04.629Z,59.97
2023-04-27T04:34:32.293Z,59.67
2023-04-27T04:36:59.954Z,60.14
2023-04-27T04:39:27.612Z,60.41
2023-04-27T04:41:55.276Z,60.83
2023-04-27T04:44:23.048Z,60.60
2023-04-27T04:46:51.441Z,61.20
2023-04-27T04:49:19.181Z,61.58
2023-04-27T04:51:47.368Z,67.17
2023-04-27T04:54:15.324Z,70.87
2023-04-27T04:56:42.946Z,56.96
2023-04-27T04:59:10.971Z,49.98
2023-04-27T05:01:38.862Z,50.33
2023-04-27T05:04:06.753Z,52.18
2023-04-27T05:06:34.862Z,53.83
2023-04-27T05:09:02.523Z,54.71
2023-04-27T05:11:30.288Z,56.20
2023-04-27T05:13:57.949Z,56.85
2023-04-27T05:16:26.772Z,57.82
2023-04-27T05:18:55.010Z,58.18
2023-04-27T05:21:22.802Z,58.69
2023-04-27T05:23:50.655Z,59.16
2023-04-27T05:26:18.405Z,60.29
2023-04-27T05:28:47.296Z,60.75
2023-04-27T05:31:14.982Z,61.44
2023-04-27T05:33:42.730Z,61.86
2023-04-27T05:36:11.101Z,68.75
2023-04-27T05:38:40.476Z,67.69
2023-04-27T05:41:08.476Z,54.97
2023-04-27T05:43:38.189Z,51.04
2023-04-27T05:46:05.975Z,52.77
2023-04-27T05:48:33.727Z,54.23
2023-04-27T05:51:01.999Z,54.74
2023-04-27T05:53:29.754Z,55.70
2023-04-27T05:55:59.461Z,57.32
2023-04-27T05:58:27.131Z,57.25
2023-04-27T06:00:54.894Z,58.38
2023-04-27T06:03:22.811Z,58.36
2023-04-27T06:05:50.726Z,58.45
2023-04-27T06:08:18.394Z,58.88
2023-04-27T06:10:46.049Z,59.93
2023-04-27T06:13:13.814Z,60.07
2023-04-27T06:15:41.798Z,60.81
2023-04-27T06:18:09.594Z,60.69
2023-04-27T06:20:37.423Z,60.86
2023-04-27T06:23:05.078Z,60.82
2023-04-27T06:25:32.739Z,61.72
2023-04-27T06:28:00.606Z,61.85
2023-04-27T06:30:28.390Z,61.46
2023-04-27T06:32:56.176Z,61.53
2023-04-27T06:35:23.911Z,61.96
2023-04-27T06:37:51.657Z,62.05
2023-04-27T06:40:19.317Z,63.37
2023-04-27T06:42:46.971Z,67.68
2023-04-27T06:45:14.750Z,57.61
2023-04-27T06:47:42.518Z,50.70
2023-04-27T06:50:10.279Z,51.38
2023-04-27T06:52:38.038Z,52.47
2023-04-27T06:55:06.013Z,53.63
2023-04-27T06:57:33.877Z,55.52
2023-04-27T07:00:01.748Z,55.07
2023-04-27T07:02:29.476Z,55.69
2023-04-27T07:04:57.434Z,56.18
2023-04-27T07:07:25.134Z,57.20
2023-04-27T07:09:52.794Z,56.41
2023-04-27T07:12:20.662Z,56.46
2023-04-27T07:14:50.890Z,58.31
2023-04-27T07:17:18.648Z,58.72
2023-04-27T07:19:46.423Z,58.39
2023-04-27T07:22:16.187Z,58.81
2023-04-27T07:24:43.888Z,58.32
2023-04-27T07:27:11.648Z,59.05
2023-04-27T07:29:39.618Z,59.30
2023-04-27T07:32:07.520Z,58.07
2023-04-27T07:34:49.054Z,58.51
2023-04-27T07:37:21.265Z,59.25
2023-04-27T07:39:48.944Z,58.83
2023-04-27T07:42:16.968Z,58.98
2023-04-27T07:44:44.632Z,58.75
2023-04-27T07:47:13.438Z,58.89
2023-04-27T07:49:41.200Z,58.75
2023-04-27T07:52:08.953Z,57.92
2023-04-27T07:54:36.621Z,58.26
2023-04-27T07:57:04.275Z,58.28
2023-04-27T07:59:32.032Z,57.75
2023-04-27T08:02:17.843Z,57.70
2023-04-27T08:04:48.205Z,57.07
2023-04-27T08:07:17.335Z,56.97
2023-04-27T08:09:45.421Z,56.58
2023-04-27T08:12:13.052Z,56.07
2023-04-27T08:14:40.944Z,54.65
2023-04-27T08:17:08.607Z,54.16
2023-04-27T08:19:36.471Z,54.40
2023-04-27T08:22:04.157Z,54.71
2023-04-27T08:24:32.005Z,54.53
2023-04-27T08:26:59.667Z,53.89
2023-04-27T08:29:28.851Z,53.68
2023-04-27T08:31:57.193Z,54.25
2023-04-27T08:34:25.108Z,54.10
2023-04-27T08:36:54.227Z,53.59
2023-04-27T08:39:22.073Z,53.35
2023-04-27T08:41:49.846Z,53.53
2023-04-27T08:44:17.491Z,53.59
2023-04-27T08:46:45.451Z,53.61
2023-04-27T08:49:15.995Z,53.52
2023-04-27T08:51:44.926Z,54.05
2023-04-27T08:54:12.665Z,53.97
2023-04-27T08:56:40.306Z,53.91
2023-04-27T08:59:07.981Z,53.67
2023-04-27T09:01:35.759Z,53.44
2023-04-27T09:04:03.790Z,52.61
2023-04-27T09:06:32.052Z,52.54
2023-04-27T09:08:59.956Z,52.69
2023-04-27T09:14:22.107Z,52.48
2023-04-27T09:16:50.286Z,52.66
2023-04-27T09:19:18.041Z,52.52
2023-04-27T09:21:48.364Z,51.88
2023-04-27T09:24:16.020Z,52.12
2023-04-27T09:26:43.790Z,52.12
2023-04-27T09:29:12.111Z,52.12
2023-04-27T09:31:40.662Z,52.30
2023-04-27T09:34:08.413Z,52.21
2023-04-27T09:36:36.381Z,51.80
2023-04-27T09:39:06.907Z,51.81
2023-04-27T09:41:34.566Z,51.32
2023-04-27T09:44:02.234Z,50.50
2023-04-27T09:46:30.266Z,50.06
2023-04-27T09:48:58.066Z,49.85
2023-04-27T09:51:26.444Z,49.60
2023-04-27T09:53:54.208Z,48.79
2023-04-27T09:56:22.299Z,49.87
2023-04-27T09:58:50.044Z,49.42
2023-04-27T10:01:17.739Z,49.24
2023-04-27T10:03:45.628Z,48.96
2023-04-27T10:06:13.442Z,49.32
2023-04-27T10:08:42.033Z,49.23
2023-04-27T10:11:09.687Z,49.02
2023-04-27T10:13:37.447Z,48.77
2023-04-27T10:16:05.109Z,48.57
2023-04-27T10:18:32.783Z,48.35
2023-04-27T10:21:00.744Z,48.46
2023-04-27T10:23:29.199Z,48.55
2023-04-27T10:25:57.510Z,48.83
2023-04-27T10:28:25.473Z,48.62
2023-04-27T10:30:53.238Z,48.47
2023-04-27T10:33:21.612Z,48.34
2023-04-27T10:35:49.273Z,48.08
2023-04-27T10:38:17.492Z,46.66
2023-04-27T10:40:45.215Z,46.47
2023-04-27T10:43:12.976Z,46.58
2023-04-27T10:45:41.708Z,46.50
2023-04-27T10:48:09.600Z,46.55
2023-04-27T10:50:37.393Z,46.50
2023-04-27T10:53:05.055Z,46.00
2023-04-27T10:55:32.819Z,45.60
2023-04-27T10:58:01.714Z,44.54
2023-04-27T11:00:29.475Z,44.81
2023-04-27T11:02:57.343Z,44.98
2023-04-27T11:05:25.640Z,45.26
2023-04-27T11:07:53.287Z,44.32
2023-04-27T11:10:21.093Z,44.70
2023-04-27T11:12:48.911Z,45.28
2023-04-27T11:15:16.674Z,45.54
2023-04-27T11:17:44.617Z,45.66
2023-04-27T11:20:12.747Z,45.06
2023-04-27T11:22:40.580Z,44.83
2023-04-27T11:25:08.799Z,45.01
2023-04-27T11:27:37.131Z,44.65
2023-04-27T11:30:04.893Z,43.80
2023-04-27T11:32:32.618Z,44.04
2023-04-27T11:35:00.726Z,44.06
2023-04-27T11:37:28.503Z,44.20
2023-04-27T11:39:57.717Z,44.38
2023-04-27T11:42:25.671Z,44.57
2023-04-27T11:44:53.736Z,44.73
2023-04-27T11:47:22.915Z,44.66
2023-04-27T11:49:50.807Z,45.12
2023-04-27T11:52:18.466Z,45.14
2023-04-27T11:54:46.228Z,45.26
2023-04-27T11:57:13.898Z,45.23
2023-04-27T11:59:41.959Z,45.49
2023-04-27T12:02:10.320Z,45.41
2023-04-27T12:04:38.418Z,45.63
2023-04-27T12:07:06.799Z,45.63
2023-04-27T12:09:34.652Z,45.68
2023-04-27T12:12:02.767Z,45.59
2023-04-27T12:14:30.484Z,45.81
2023-04-27T12:16:58.200Z,45.66
2023-04-27T12:19:26.329Z,45.85
2023-04-27T12:21:54.285Z,45.99
2023-04-27T12:24:22.053Z,46.09
2023-04-27T12:26:49.817Z,46.22
2023-04-27T12:29:18.001Z,46.05
2023-04-27T12:31:45.931Z,46.36
2023-04-27T12:34:14.004Z,46.31
2023-04-27T12:36:42.212Z,46.42
2023-04-27T12:39:09.966Z,46.66
2023-04-27T12:41:37.639Z,46.37
2023-04-27T12:44:05.605Z,46.57
2023-04-27T12:46:33.285Z,46.65
2023-04-27T12:49:02.152Z,46.87
2023-04-27T12:51:30.015Z,46.66
2023-04-27T12:54:00.193Z,46.68
2023-04-27T12:56:29.025Z,46.68
2023-04-27T12:58:56.906Z,46.62
2023-04-27T13:01:28.099Z,46.55
2023-04-27T13:03:56.288Z,46.37
2023-04-27T13:06:24.178Z,46.18
2023-04-27T13:08:51.840Z,45.24
2023-04-27T13:11:19.502Z,44.96
2023-04-27T13:13:48.493Z,44.96
2023-04-27T13:16:16.837Z,45.11
2023-04-27T13:18:48.528Z,45.03
2023-04-27T13:21:16.804Z,44.56
2023-04-27T13:23:44.467Z,44.44
2023-04-27T13:26:12.128Z,44.50
2023-04-27T13:28:41.219Z,43.77
2023-04-27T13:31:08.949Z,44.71
2023-04-27T13:33:36.783Z,44.44
2023-04-27T13:36:04.511Z,44.25
2023-04-27T13:38:32.181Z,43.89
2023-04-27T13:40:59.842Z,44.17
2023-04-27T13:43:27.600Z,44.24
2023-04-27T13:45:57.217Z,44.54
2023-04-27T13:48:26.112Z,44.63
2023-04-27T13:50:53.760Z,44.65
2023-04-27T13:53:21.624Z,44.93
2023-04-27T13:55:49.322Z,45.06
2023-04-27T13:58:17.056Z,45.02
2023-04-27T14:00:44.933Z,44.88
2023-04-27T14:03:12.828Z,45.05
2023-04-27T14:05:40.761Z,44.97
2023-04-27T14:08:08.416Z,44.85
2023-04-27T14:10:36.077Z,44.64
2023-04-27T14:13:03.749Z,42.72
2023-04-27T14:15:33.963Z,43.33
2023-04-27T14:18:01.690Z,43.54
2023-04-27T14:20:29.493Z,43.47
2023-04-27T14:22:58.512Z,43.20
2023-04-27T14:25:27.481Z,42.65
2023-04-27T14:27:55.240Z,42.61
2023-04-27T14:30:23.417Z,42.87
2023-04-27T14:32:51.233Z,43.22
2023-04-27T14:35:19.360Z,43.53
2023-04-27T14:37:47.529Z,43.61
2023-04-27T14:40:15.290Z,43.68
2023-04-27T14:42:42.958Z,44.03
2023-04-27T14:45:10.935Z,44.06
2023-04-27T14:47:38.932Z,44.23
2023-04-27T14:50:06.812Z,44.17
2023-04-27T14:52:34.627Z,44.31
2023-04-27T14:55:02.392Z,44.22
2023-04-27T14:57:30.053Z,44.21
2023-04-27T14:59:57.822Z,44.51
2023-04-27T15:02:25.758Z,44.67
2023-04-27T15:04:53.918Z,44.94
2023-04-27T15:07:21.734Z,44.98
2023-04-27T15:09:49.500Z,45.12
2023-04-27T15:12:17.252Z,45.29
2023-04-27T15:14:45.013Z,45.35
2023-04-27T15:17:13.510Z,45.30
2023-04-27T15:19:41.566Z,45.24
2023-04-27T15:22:09.498Z,45.46
2023-04-27T15:24:37.394Z,45.46
2023-04-27T15:27:05.059Z,45.39
2023-04-27T15:29:32.739Z,45.55
2023-04-27T15:32:00.603Z,45.63
2023-04-27T15:34:28.357Z,45.88
2023-04-27T15:36:56.118Z,46.07
2023-04-27T15:39:23.784Z,46.22
2023-04-27T15:41:51.418Z,46.30
2023-04-27T15:44:19.202Z,46.40
2023-04-27T15:46:47.139Z,46.36
2023-04-27T15:49:15.171Z,46.47
2023-04-27T15:51:43.325Z,46.61
2023-04-27T15:54:11.491Z,46.68
2023-04-27T15:56:39.153Z,46.73
2023-04-27T15:59:08.251Z,46.75
2023-04-27T16:01:36.790Z,46.68
2023-04-27T16:04:04.746Z,46.84
2023-04-27T16:06:33.281Z,46.90
2023-04-27T16:09:01.884Z,47.14
2023-04-27T16:11:29.522Z,47.31
2023-04-27T16:13:57.187Z,47.54
2023-04-27T16:16:24.989Z,47.73
2023-04-27T16:18:52.820Z,47.97
2023-04-27T16:21:20.691Z,48.03
2023-04-27T16:23:48.574Z,48.23
2023-04-27T16:26:16.464Z,48.28
2023-04-27T16:28:44.284Z,48.42
2023-04-27T16:31:12.148Z,48.38
2023-04-27T16:33:39.924Z,48.39
2023-04-27T16:36:07.680Z,48.49
2023-04-27T16:38:36.579Z,48.62
2023-04-27T16:41:05.492Z,48.64
2023-04-27T16:43:34.137Z,48.69
2023-04-27T16:46:01.919Z,48.61
2023-04-27T16:48:30.489Z,48.90
2023-04-27T16:50:58.252Z,48.95
2023-04-27T16:53:27.348Z,48.86
2023-04-27T16:55:55.109Z,49.03
2023-04-27T16:58:22.779Z,49.10
2023-04-27T17:00:50.538Z,49.10
2023-04-27T17:03:18.440Z,49.25
2023-04-27T17:05:46.379Z,49.30
2023-04-27T17:08:14.032Z,49.60
2023-04-27T17:10:41.701Z,49.80
2023-04-27T17:13:11.201Z,49.74
2023-04-27T17:15:38.880Z,49.89
2023-04-27T17:18:06.842Z,49.80
2023-04-27T17:20:34.803Z,50.14
2023-04-27T17:23:02.568Z,50.20
2023-04-27T17:25:30.226Z,50.22
2023-04-27T17:27:59.562Z,50.26
2023-04-27T17:30:29.172Z,50.29
2023-04-27T17:32:56.977Z,50.50
2023-04-27T17:35:24.873Z,50.40
2023-04-27T17:37:52.639Z,50.43
2023-04-27T17:40:21.209Z,50.50
2023-04-27T17:42:49.188Z,50.46
2023-04-27T17:45:16.954Z,50.60
2023-04-27T17:47:44.614Z,50.74
2023-04-27T17:50:12.390Z,50.85
2023-04-27T17:52:40.146Z,50.97
2023-04-27T17:55:07.804Z,51.04
2023-04-27T17:57:35.534Z,51.05
2023-04-27T18:00:03.260Z,51.11
2023-04-27T18:02:31.082Z,51.07
2023-04-27T18:04:59.066Z,51.12
2023-04-27T18:07:26.932Z,51.23
2023-04-27T18:09:56.785Z,51.34
2023-04-27T18:12:24.823Z,51.47
2023-04-27T18:14:52.723Z,51.70
2023-04-27T18:17:21.266Z,51.68
2023-04-27T18:19:55.345Z,51.73
2023-04-27T18:22:28.878Z,51.92
2023-04-27T18:24:56.742Z,51.90
2023-04-27T18:27:24.507Z,51.92
2023-04-27T18:29:52.271Z,52.02
2023-04-27T18:32:20.038Z,52.41
2023-04-27T18:34:48.008Z,52.86
2023-04-27T18:37:15.869Z,54.30
2023-04-27T18:39:43.848Z,53.97
2023-04-27T18:42:11.805Z,54.51
2023-04-27T18:44:39.571Z,54.34
2023-04-27T18:47:08.051Z,54.94
2023-04-27T18:49:35.921Z,55.25
2023-04-27T18:52:03.569Z,54.94
2023-04-27T18:54:31.239Z,53.63
2023-04-27T18:56:59.004Z,53.58
2023-04-27T18:59:26.663Z,54.28
2023-04-27T19:01:54.520Z,54.85
2023-04-27T19:04:22.724Z,55.97
2023-04-27T19:06:50.883Z,56.65
2023-04-27T19:09:19.569Z,56.75
2023-04-27T19:11:56.114Z,55.79
2023-04-27T19:14:33.734Z,57.06
2023-04-27T19:17:01.851Z,57.12
2023-04-27T19:19:29.781Z,57.89
2023-04-27T19:21:58.689Z,58.05
2023-04-27T19:24:26.426Z,58.13
2023-04-27T19:26:54.409Z,58.31
2023-04-27T19:29:22.468Z,58.82
2023-04-27T19:31:50.240Z,59.50
2023-04-27T19:34:18.003Z,59.64
2023-04-27T19:36:46.594Z,59.36
2023-04-27T19:39:16.025Z,59.40
2023-04-27T19:41:43.954Z,59.58
2023-04-27T19:44:11.832Z,59.45
2023-04-27T19:46:40.113Z,59.55
2023-04-27T19:49:07.866Z,59.66
2023-04-27T19:51:35.615Z,59.89
2023-04-27T19:54:03.285Z,60.46
2023-04-27T19:56:32.894Z,61.12
2023-04-27T19:59:00.962Z,61.23
2023-04-27T20:01:28.761Z,61.71
2023-04-27T20:03:57.572Z,62.24
2023-04-27T20:06:25.483Z,64.08
2023-04-27T20:08:53.247Z,68.28
2023-04-27T20:11:21.110Z,55.56
2023-04-27T20:13:49.487Z,50.16
2023-04-27T20:16:18.657Z,51.44
2023-04-27T20:18:46.762Z,53.07
2023-04-27T20:21:14.832Z,54.00
2023-04-27T20:23:43.105Z,54.90
2023-04-27T20:26:11.072Z,55.64
2023-04-27T20:28:38.753Z,56.05
2023-04-27T20:31:06.504Z,56.67
2023-04-27T20:33:34.160Z,56.96
2023-04-27T20:36:14.070Z,57.42
2023-04-27T20:38:44.747Z,57.66
2023-04-27T20:41:12.717Z,58.09
2023-04-27T20:43:40.896Z,58.49
2023-04-27T20:46:08.708Z,59.16
2023-04-27T20:48:36.932Z,59.38
2023-04-27T20:51:04.703Z,59.76
2023-04-27T20:53:32.353Z,60.17
2023-04-27T20:56:00.015Z,60.20
2023-04-27T20:58:27.693Z,60.55
2023-04-27T21:00:55.689Z,60.66
2023-04-27T21:03:23.606Z,60.58
2023-04-27T21:05:51.796Z,60.56
2023-04-27T21:08:19.559Z,60.74
2023-04-27T21:10:47.421Z,60.88
2023-04-27T21:13:15.296Z,61.02
2023-04-27T21:15:43.261Z,61.15
2023-04-27T21:18:22.438Z,61.13
2023-04-27T21:20:56.600Z,60.99
2023-04-27T21:23:24.369Z,61.38
2023-04-27T21:25:52.134Z,61.52
2023-04-27T21:28:19.896Z,61.81
2023-04-27T21:30:47.941Z,62.00
2023-04-27T21:33:15.739Z,61.98
2023-04-27T21:35:43.700Z,62.06
2023-04-27T21:38:11.461Z,67.84
2023-04-27T21:40:39.634Z,66.73
2023-04-27T21:43:07.917Z,53.91
2023-04-27T21:45:36.390Z,51.40
2023-04-27T21:48:04.130Z,53.02
2023-04-27T21:50:31.919Z,54.56
2023-04-27T21:52:59.581Z,55.79
2023-04-27T21:55:27.241Z,56.57
2023-04-27T21:57:55.107Z,57.21
2023-04-27T22:00:22.880Z,57.56
2023-04-27T22:02:51.681Z,58.34
2023-04-27T22:05:22.605Z,59.03
2023-04-27T22:07:51.701Z,59.73
2023-04-27T22:10:19.453Z,60.45
2023-04-27T22:12:47.335Z,60.96
2023-04-27T22:15:15.406Z,61.00
2023-04-27T22:17:44.158Z,60.92
2023-04-27T22:20:13.071Z,61.13
2023-04-27T22:22:41.259Z,61.10
2023-04-27T22:25:09.015Z,61.33
2023-04-27T22:27:44.601Z,61.36
2023-04-27T22:30:13.362Z,61.62
2023-04-27T22:32:41.379Z,67.04
2023-04-27T22:35:24.862Z,65.31
2023-04-27T22:37:54.659Z,52.16
2023-04-27T22:40:22.330Z,50.93
2023-04-27T22:42:50.093Z,52.68
2023-04-27T22:45:17.716Z,54.22
2023-04-27T22:47:46.218Z,55.54
2023-04-27T22:50:14.098Z,56.48
2023-04-27T22:52:44.839Z,56.57
2023-04-27T22:55:12.685Z,56.93
2023-04-27T22:57:40.666Z,57.13
2023-04-27T23:00:12.052Z,57.50
2023-04-27T23:02:40.536Z,57.83
2023-04-27T23:05:08.668Z,58.82
2023-04-27T23:07:36.404Z,59.28
2023-04-27T23:10:05.220Z,60.01
2023-04-27T23:12:32.988Z,60.33
2023-04-27T23:15:00.746Z,59.78
2023-04-27T23:17:31.370Z,60.27
2023-04-27T23:19:59.291Z,60.28
2023-04-27T23:22:27.016Z,60.77
2023-04-27T23:24:54.777Z,60.76
2023-04-27T23:27:23.769Z,61.10
2023-04-27T23:29:51.539Z,61.59
2023-04-27T23:32:19.312Z,67.89
2023-04-27T23:34:47.057Z,66.06
2023-04-27T23:37:14.720Z,53.46
2023-04-27T23:39:42.499Z,51.16
2023-04-27T23:42:10.247Z,52.96
2023-04-27T23:44:38.011Z,54.66
2023-04-27T23:47:05.672Z,55.60
2023-04-27T23:49:33.336Z,56.19
2023-04-27T23:52:00.997Z,56.71
2023-04-27T23:54:28.660Z,57.59
2023-04-27T23:56:56.428Z,58.25
2023-04-27T23:59:24.093Z,58.37
